Aviation Digital Data Service (ADDS)

Output produced by METARs form (0338 UTC 24 February 2017)
found at http://www.aviationweather.gov/adds/metars/
 
UAAA 240330Z 00000MPS 0900 R05L/1200N R05R/0900U FU FEW200 01/M06 Q1023 R88/65D NOSIG
TAF COR UAAA 232300Z 2400/2424 15004MPS 1300 BR FU BKN100 TX08/2409Z TNM08/2401Z 
     TEMPO 2400/2403 0500 FZFG 
     BECMG 2405/2406 03005MPS 3000 
     BECMG 2413/2414 16005MPS 1000 
     TEMPO 2413/2420 0500 FU
       
UAAH 240330Z 08005MPS 9999 SCT010 M15/M16 Q1023 R05/710150 NOSIG RMK QFE730/0974
TAF UAAH 240243Z 2403/2412 09005MPS 6000 SCT007 
     TEMPO 2403/2408 1000 BR BKN003
       
UACC 240330Z 17004MPS CAVOK M14/M18 Q1019 R22/8/0065 NOSIG RMK QFE733/0977
TAF UACC 232300Z 2400/2424 18006MPS 9999 NSC TXM04/2409Z TNM16/2401Z 
     TEMPO 2415/2424 3000 BR SCT005
       
UACK 240330Z 17005MPS CAVOK M12/M16 Q1017 NOSIG RMK QFE739/0985
TAF UACK 240200Z 2403/2412 18007MPS 9999 SCT033 BKN100 
     TEMPO 2403/2405 14005MPS 3100 BR SCT007
       
UACP 240330Z 15004MPS CAVOK M14/M16 Q1017 R23/8/0553 NOSIG RMK QFE750/1000
TAF UACP 240203Z 2403/2412 14004MPS 9999 BKN030
       
UADD 240330Z 14002MPS 110V170 9999 NSC 01/M06 Q1019 R13/0///65 NOSIG RMK QFE707/0943
TAF UADD 240200Z 2403/2412 22005G10MPS 9999 SCT050 BKN100
       
UAII 240330Z 11003MPS 7000 NSC 04/M02 Q1019 R10/0///70 NOSIG RMK QFE729/0972
TAF UAII 232300Z 2400/2424 VRB02MPS 6000 NSC TX13/2409Z TN01/2423Z 
     TEMPO 2400/2402 12004MPS 1500 BR FU TEMP0 2406/2415 25006MPS SCT050CB BKN100 
     TEMPO 2415/2424 21007MPS 3000 -SHRA BR SCT010 BKN030CB
       
TAF UAKD 240200Z 2403/2412 11007MPS 9999 BKN100 
     TEMPO 2403/2405 2000 IC BR SCT005
       
UAKK 240330Z 17009MPS CAVOK M11/M15 Q1019 R23/920555 NOSIG RMK QFE717/0957
TAF UAKK 232300Z 2400/2424 18009MPS 9999 NSC TXM04/2409Z TNM12/2423Z
       
UAOO 240330Z 16003MPS 3300 BR NSC M01/M01 Q1017 R05/CLRD70 NOSIG RMK QFE751/1001
TAF UAOO 240200Z 2403/2412 17004MPS 5000 BR NSC 
     TEMPO 2403/2404 2000 
     TEMPO 2405/2412 9999 NSW
       
UARR 240330Z 15011MPS 0650 R22/0900D +SN BLSN BKN003 OVC016 M00/M00 Q1000 R22/550140 TEMPO 0500 +SN BLSN BKN003 RMK QBB110 QFE746/0995
TAF UARR 240201Z 2403/2412 17009G14MPS 3000 -SNRA BR BKN005 
     TEMPO 2403/2409 0500 FZFG VV002 
     BECMG 2409/2410 25008MPS
       
UASK 240330Z 30001MPS 0900 R30/0900 FZFG SCT002 M18/M21 Q1027 R30/810150 TEMPO 0300 FZFG VV002 RMK QBB060 QFE744/0993
TAF UASK 240206Z 2403/2412 VRB02MPS 0800 FZFG VV004 
     TEMPO 2403/2406 0200 VV002 
     BECMG 2406/2407 3000 BR SCT006 SCT011
       
UASP 240330Z 16004MPS 5000 BR BKN001 M18/M20 Q1022 R21/820260 NOSIG RMK QBB040 OBST PT OBSC QFE755/1007
TAF AMD COR UASP 240320Z 2403/2412 13007MPS 9999 SCT020 
     TEMPO 2403/2409 19007MPS 0600 FZFG FU BKN002 
     TEMPO 2409/2412 19005MPS
       
UASS 240330Z 16004MPS CAVOK M11/M15 Q1026 R26/85//45 NOSIG RMK QFE751/1001
TAF UASS 240200Z 2403/2412 12006MPS 9999 NSC 
     TEMPO 2403/2406 3000 FU
       
UATE 240330Z 13003MPS 4500 BR NSC 02/02 Q1012 R12/1///65 NOSIG RMK QFE757/1009
TAF AMD UATE 240302Z 2403/2424 14006MPS 6000 SCT005 OVC040 TX08/2409Z TN01/2402Z 
     TEMPO 2403/2405 2000 -RA BR SCT003 
     BECMG 2405/2407 25007G13MPS
       
UATG 240330Z 19005MPS 3000 -SHRASN BR BKN005 OVC019CB M00/M00 Q1006 R14/42//55 TEMPO 1500 SHRASN BKN003 OVC010CB RMK QBB170 QFE757/1009
TAF UATG 232301Z 2400/2424 23008MPS 3000 BR OVC010CB TX05/2411Z TNM03/2402Z 
     TEMPO 2400/2409 1500 SHRASN BKN003
       
UATT 240330Z 16003MPS 0400 R13/0450 FZFG VV002 M07/M07 Q1008 R13/850545 NOSIG RMK QBB060 QFE736/0982
TAF UATT 232300Z 2400/2424 16005MPS 1000 BR BKN004 TXM01/2412Z TNM07/2400Z 
     TEMPO 2400/2406 0300 -FZDZ FZFG VV001 
     FM240600 19007MPS 3000 -SN BR BKN010 
     TEMPO 2406/2416 2000 BKN003 
     FM241600 24005MPS 3000 SN BR BKN007 
     TEMPO 2416/2424 0500 -FZDZ FZFG VV002
       
UAUU 240330Z 14003MPS 7000 NSC M16/M18 Q1013 R15/810154 NOSIG RMK QFE743/0991
TAF UAUU 240200Z 2403/2412 17005MPS 6000 SCT006 BKN020 
     TEMPO 2403/2405 2000 BR